Time;durP1;ratioP1;P1;durP2;ratioP2;P2;SDS_P1;SDS_P2;PMS_P1;PMS_P2;Temp;Humidity;BMP_temperature;BMP_pressure;BME280_temperature;BME280_humidity;BME280_pressure;Samples;Min_cycle;Max_cycle;Signal;HPM_P1;HPM_P2
2021/08/01 00:02:00;;;;;;;9.65;7.97;;;16.10;99.90;;;;;;5093885;28;20178;-77
2021/08/01 00:04:26;;;;;;;17.90;8.20;;;16.10;99.90;;;;;;5093902;28;20181;-77
2021/08/01 00:06:51;;;;;;;15.13;7.43;;;16.10;99.90;;;;;;5091314;28;20174;-76
2021/08/01 00:09:17;;;;;;;18.35;7.80;;;16.20;99.90;;;;;;5061590;28;20269;-77
2021/08/01 00:11:43;;;;;;;14.25;7.85;;;16.20;99.90;;;;;;5094036;28;20669;-77
2021/08/01 00:14:09;;;;;;;15.77;7.72;;;16.20;99.90;;;;;;5093422;28;20177;-77
2021/08/01 00:16:34;;;;;;;19.80;8.07;;;16.20;99.90;;;;;;5093714;28;20647;-77
2021/08/01 00:19:00;;;;;;;12.02;8.00;;;16.20;99.90;;;;;;5093407;28;20176;-77
2021/08/01 00:21:26;;;;;;;22.67;7.60;;;16.10;99.90;;;;;;5086894;28;20261;-77
2021/08/01 00:23:52;;;;;;;24.95;8.80;;;16.10;99.90;;;;;;5073460;28;20177;-77
2021/08/01 00:26:18;;;;;;;28.08;9.07;;;16.00;99.90;;;;;;5073727;28;20182;-78
2021/08/01 00:28:43;;;;;;;16.85;7.53;;;16.10;99.90;;;;;;5073170;28;20167;-77
2021/08/01 00:31:09;;;;;;;23.20;7.85;;;16.00;99.90;;;;;;5059137;28;20257;-77
2021/08/01 00:33:34;;;;;;;21.23;7.47;;;15.90;99.90;;;;;;5075318;28;20628;-79
2021/08/01 00:36:00;;;;;;;27.85;7.22;;;15.80;99.90;;;;;;5093857;28;20174;-77
2021/08/01 00:38:26;;;;;;;20.20;7.35;;;15.80;99.90;;;;;;5093699;28;20174;-76
2021/08/01 00:40:51;;;;;;;17.13;7.63;;;15.80;99.90;;;;;;5075327;28;20209;-77
2021/08/01 00:43:17;;;;;;;9.77;6.68;;;15.70;99.90;;;;;;5076828;28;20577;-77
2021/08/01 00:45:43;;;;;;;18.45;7.07;;;15.70;99.90;;;;;;5079388;28;20174;-76
2021/08/01 00:48:10;;;;;;;15.13;6.78;;;15.60;99.90;;;;;;5079151;28;20166;-77
2021/08/01 00:50:36;;;;;;;15.23;7.13;;;15.60;99.90;;;;;;5079422;28;20257;-76
2021/08/01 00:53:02;;;;;;;20.80;7.40;;;15.50;99.90;;;;;;5078938;28;20201;-77
2021/08/01 00:55:27;;;;;;;15.85;7.03;;;15.50;99.90;;;;;;5059104;28;20181;-77
2021/08/01 00:57:53;;;;;;;14.60;8.50;;;15.50;99.90;;;;;;5076986;28;20635;-77
2021/08/01 01:02:50;;;;;;;23.48;8.07;;;15.50;99.90;;;;;;5096569;28;20173;-77
2021/08/01 01:05:35;;;;;;;23.08;8.48;;;15.50;99.90;;;;;;5097036;28;20166;-77
2021/08/01 01:08:08;;;;;;;33.00;8.43;;;15.50;99.90;;;;;;5096902;28;20653;-78
2021/08/01 01:10:42;;;;;;;23.70;8.70;;;15.50;99.90;;;;;;5078456;28;20221;-77
2021/08/01 01:13:14;;;;;;;21.83;8.65;;;15.50;99.90;;;;;;5078971;28;20163;-77
2021/08/01 01:15:50;;;;;;;16.27;8.45;;;15.30;99.90;;;;;;5076571;28;20171;-76
2021/08/01 01:18:20;;;;;;;15.80;7.80;;;15.40;99.90;;;;;;5076677;28;20154;-76
2021/08/01 01:21:09;;;;;;;19.25;7.68;;;15.40;99.90;;;;;;5058475;28;20191;-76
2021/08/01 01:23:38;;;;;;;20.40;7.78;;;15.30;99.90;;;;;;5076482;28;20166;-76
2021/08/01 01:26:34;;;;;;;19.83;7.78;;;15.30;99.90;;;;;;5076465;28;20159;-76
2021/08/01 01:29:26;;;;;;;28.35;7.90;;;15.20;99.90;;;;;;5075522;28;20183;-76
2021/08/01 01:32:02;;;;;;;11.48;7.22;;;15.20;99.90;;;;;;5084702;28;20201;-76
2021/08/01 01:34:37;;;;;;;20.70;8.10;;;15.20;99.90;;;;;;5066320;28;20174;-76
2021/08/01 01:37:08;;;;;;;15.38;8.07;;;15.20;99.90;;;;;;5076314;28;20161;-76
2021/08/01 01:39:39;;;;;;;15.18;7.80;;;15.20;99.90;;;;;;5076287;28;20660;-76
2021/08/01 01:42:09;;;;;;;17.58;8.45;;;15.20;99.90;;;;;;5084062;28;20549;-76
2021/08/01 01:44:38;;;;;;;21.98;8.45;;;15.10;99.90;;;;;;5076054;28;20169;-76
2021/08/01 01:47:04;;;;;;;19.25;8.30;;;15.10;99.90;;;;;;5076018;28;20167;-76
2021/08/01 01:49:30;;;;;;;20.50;8.27;;;15.10;99.90;;;;;;5057895;28;20377;-75
2021/08/01 01:51:56;;;;;;;22.27;9.80;;;15.10;99.90;;;;;;5075961;28;20174;-76
2021/08/01 01:54:22;;;;;;;23.08;8.93;;;15.10;99.90;;;;;;5085519;28;20632;-75
2021/08/01 01:56:49;;;;;;;24.95;11.15;;;15.20;99.90;;;;;;5095842;28;20173;-77
2021/08/01 01:59:15;;;;;;;17.98;9.00;;;15.30;99.90;;;;;;5081127;28;20210;-77
2021/08/01 02:01:41;;;;;;;23.67;9.60;;;15.40;99.90;;;;;;5080001;28;20218;-76
2021/08/01 02:04:07;;;;;;;22.05;9.48;;;15.40;99.90;;;;;;5080946;28;20213;-76
2021/08/01 02:06:35;;;;;;;26.90;8.07;;;15.40;99.90;;;;;;5075415;28;20590;-76
2021/08/01 02:09:10;;;;;;;24.02;9.25;;;15.50;99.90;;;;;;5057616;28;20171;-76
2021/08/01 02:12:05;;;;;;;27.17;8.77;;;15.50;99.90;;;;;;5079098;28;20159;-76
2021/08/01 02:14:57;;;;;;;20.83;8.52;;;15.60;99.90;;;;;;5075508;28;20154;-76
2021/08/01 02:17:29;;;;;;;24.55;8.20;;;15.60;99.90;;;;;;5076548;28;20183;-75
2021/08/01 02:19:58;;;;;;;29.55;7.68;;;15.60;99.90;;;;;;5077064;28;20645;-76
2021/08/01 02:22:24;;;;;;;22.80;8.43;;;15.70;99.90;;;;;;5089144;28;20181;-76
2021/08/01 02:24:51;;;;;;;17.27;8.45;;;15.70;99.90;;;;;;5095500;28;20166;-75
2021/08/01 02:27:18;;;;;;;18.27;8.00;;;15.70;99.90;;;;;;5077333;28;20206;-76
2021/08/01 02:29:44;;;;;;;29.83;8.95;;;15.70;99.90;;;;;;5077241;28;20235;-76
2021/08/01 02:32:10;;;;;;;20.83;8.00;;;15.70;99.90;;;;;;5076419;28;20661;-75
2021/08/01 02:34:37;;;;;;;18.35;7.63;;;15.70;99.90;;;;;;5077558;28;20166;-75
2021/08/01 02:37:03;;;;;;;14.77;7.43;;;15.70;99.90;;;;;;5095254;28;20230;-75
2021/08/01 02:39:31;;;;;;;24.60;7.75;;;15.80;99.90;;;;;;5064598;28;20202;-75
2021/08/01 02:41:59;;;;;;;23.63;7.60;;;15.80;99.90;;;;;;5057793;28;20534;-76
2021/08/01 02:44:29;;;;;;;27.48;6.82;;;15.90;99.90;;;;;;5074830;28;20166;-76
2021/08/01 02:46:57;;;;;;;16.20;6.35;;;16.00;99.90;;;;;;5094582;28;20174;-76
2021/08/01 02:49:27;;;;;;;16.63;7.35;;;16.00;99.90;;;;;;5094956;28;20173;-75
2021/08/01 02:51:55;;;;;;;19.17;6.53;;;16.00;99.90;;;;;;5076155;28;20249;-75
2021/08/01 02:54:22;;;;;;;14.70;6.53;;;16.00;99.90;;;;;;5094942;28;20257;-75
2021/08/01 02:56:49;;;;;;;23.25;7.70;;;16.00;99.90;;;;;;5094840;28;20574;-75
2021/08/01 02:59:16;;;;;;;16.30;6.40;;;16.10;99.90;;;;;;5094719;28;20201;-75
2021/08/01 03:01:42;;;;;;;22.73;7.28;;;16.20;99.90;;;;;;5087698;28;20189;-75
2021/08/01 03:04:13;;;;;;;21.25;6.70;;;16.20;99.90;;;;;;5074409;28;20173;-75
2021/08/01 03:06:40;;;;;;;25.73;7.60;;;16.20;99.90;;;;;;5074216;28;20605;-75
2021/08/01 03:09:06;;;;;;;16.20;6.28;;;16.30;99.90;;;;;;5056316;28;20659;-75
2021/08/01 03:11:34;;;;;;;19.85;6.57;;;16.30;99.90;;;;;;5062596;28;20201;-75
2021/08/01 03:14:03;;;;;;;25.55;6.68;;;16.40;99.90;;;;;;5072331;28;20530;-75
2021/08/01 03:16:30;;;;;;;16.98;6.25;;;16.40;99.90;;;;;;5094453;28;20162;-79
2021/08/01 03:18:55;;;;;;;12.05;6.00;;;16.40;99.90;;;;;;5094373;28;20161;-75
2021/08/01 03:21:21;;;;;;;21.05;7.07;;;16.40;99.90;;;;;;5086944;28;20243;-76
2021/08/01 03:23:47;;;;;;;15.80;6.47;;;16.40;99.90;;;;;;5074088;28;20613;-75
2021/08/01 03:26:12;;;;;;;23.80;7.30;;;16.40;99.90;;;;;;5056289;28;20754;-76
2021/08/01 03:28:38;;;;;;;21.20;6.93;;;16.50;99.90;;;;;;5073901;28;20526;-76
2021/08/01 03:31:04;;;;;;;16.27;6.60;;;16.50;99.90;;;;;;5078692;28;20540;-76
2021/08/01 03:33:29;;;;;;;36.60;6.93;;;16.50;99.90;;;;;;5094215;28;20344;-84
2021/08/01 03:35:55;;;;;;;19.75;6.30;;;16.50;99.90;;;;;;5094243;28;20520;-77
2021/08/01 03:38:20;;;;;;;16.13;7.07;;;16.50;99.90;;;;;;5094451;28;20170;-75
2021/08/01 03:40:46;;;;;;;26.15;8.20;;;16.40;99.90;;;;;;5091458;28;20682;-76
2021/08/01 03:43:11;;;;;;;27.13;7.95;;;16.50;99.90;;;;;;5073909;28;20197;-76
2021/08/01 03:45:37;;;;;;;20.05;7.00;;;16.40;99.90;;;;;;5073132;28;20267;-75
2021/08/01 03:48:03;;;;;;;24.40;7.90;;;16.30;99.90;;;;;;5093961;28;20226;-75
2021/08/01 03:50:29;;;;;;;27.20;8.50;;;16.30;99.90;;;;;;5074955;28;20650;-76
2021/08/01 03:52:54;;;;;;;40.83;7.72;;;16.30;99.90;;;;;;5074928;28;20699;-77
2021/08/01 03:55:20;;;;;;;36.28;9.13;;;16.30;99.90;;;;;;5075827;28;20257;-75
2021/08/01 03:57:45;;;;;;;27.65;9.20;;;16.30;99.90;;;;;;5075533;28;20196;-75
2021/08/01 04:00:12;;;;;;;30.65;8.20;;;16.30;99.90;;;;;;5093791;28;20233;-75
2021/08/01 04:02:38;;;;;;;25.38;7.72;;;16.30;99.90;;;;;;5076325;28;20174;-76
2021/08/01 04:05:07;;;;;;;32.00;9.65;;;16.30;99.90;;;;;;5073515;28;20167;-76
2021/08/01 04:07:33;;;;;;;23.48;8.88;;;16.30;99.90;;;;;;5073538;28;20185;-76
2021/08/01 04:09:59;;;;;;;34.88;9.32;;;16.30;99.90;;;;;;5073540;28;20609;-75
2021/08/01 04:12:24;;;;;;;24.02;9.07;;;16.20;99.90;;;;;;5073986;28;20175;-76
2021/08/01 04:14:50;;;;;;;21.15;8.93;;;16.30;99.90;;;;;;5087311;28;20645;-76
2021/08/01 04:17:19;;;;;;;32.53;8.77;;;16.30;99.90;;;;;;5076313;28;20219;-75
2021/08/01 04:19:46;;;;;;;31.52;10.10;;;16.30;99.90;;;;;;5082054;28;20207;-75
2021/08/01 04:22:14;;;;;;;33.13;9.63;;;16.30;99.90;;;;;;5098637;28;20185;-76
2021/08/01 04:24:40;;;;;;;39.60;9.80;;;16.30;99.90;;;;;;5100211;28;20700;-75
2021/08/01 04:27:06;;;;;;;26.35;9.68;;;16.30;99.90;;;;;;5100294;28;20170;-76
2021/08/01 04:29:32;;;;;;;40.88;10.80;;;16.30;99.90;;;;;;5082271;28;20170;-77
2021/08/01 04:31:58;;;;;;;29.52;9.75;;;16.30;99.90;;;;;;5085262;28;20178;-78
2021/08/01 04:34:24;;;;;;;33.13;10.60;;;16.30;99.90;;;;;;5080093;28;20150;-78
2021/08/01 04:36:50;;;;;;;32.63;11.15;;;16.40;99.90;;;;;;5062112;28;20228;-77
2021/08/01 04:39:15;;;;;;;33.92;11.45;;;16.40;99.90;;;;;;5079487;28;20170;-77
2021/08/01 04:41:41;;;;;;;40.13;11.73;;;16.30;99.90;;;;;;5061905;28;20177;-78
2021/08/01 04:44:08;;;;;;;39.85;12.57;;;16.40;99.90;;;;;;5084434;28;20523;-77
2021/08/01 04:46:33;;;;;;;34.42;12.85;;;16.40;99.90;;;;;;5100144;28;20253;-77
2021/08/01 04:48:59;;;;;;;37.38;12.68;;;16.30;99.90;;;;;;5100114;28;20257;-77
2021/08/01 04:51:25;;;;;;;33.97;11.80;;;16.30;99.90;;;;;;5098100;28;20708;-77
2021/08/01 04:53:50;;;;;;;43.63;14.07;;;16.30;99.90;;;;;;5100169;28;20166;-77
2021/08/01 04:56:16;;;;;;;25.75;12.40;;;16.30;99.90;;;;;;5100152;28;20531;-76
2021/08/01 04:58:45;;;;;;;35.25;13.27;;;16.40;99.90;;;;;;5098127;28;20555;-77
2021/08/01 05:01:14;;;;;;;28.92;11.40;;;16.40;99.90;;;;;;5081132;28;20194;-77
2021/08/01 05:03:40;;;;;;;35.13;11.77;;;16.40;99.90;;;;;;5079665;28;20181;-77
2021/08/01 05:06:06;;;;;;;30.17;10.85;;;16.40;99.90;;;;;;5061678;28;20620;-77
2021/08/01 05:08:31;;;;;;;33.88;11.30;;;16.50;99.90;;;;;;5081961;28;20529;-77
2021/08/01 05:10:57;;;;;;;33.08;10.88;;;16.50;99.90;;;;;;5061985;28;20209;-81
2021/08/01 05:13:23;;;;;;;40.25;11.35;;;16.60;99.90;;;;;;5083415;28;20174;-77
2021/08/01 05:15:48;;;;;;;28.10;11.20;;;16.50;99.90;;;;;;5099855;28;20627;-76
2021/08/01 05:18:14;;;;;;;32.72;11.35;;;16.50;99.90;;;;;;5048345;28;20176;-77
2021/08/01 05:20:44;;;;;;;30.35;10.75;;;16.50;99.90;;;;;;5098803;28;20659;-77
2021/08/01 05:23:10;;;;;;;38.78;11.98;;;16.40;99.90;;;;;;5099400;28;20166;-85
2021/08/01 05:25:36;;;;;;;27.58;10.32;;;16.40;99.90;;;;;;5081489;28;20166;-78
2021/08/01 05:28:02;;;;;;;22.77;10.13;;;16.50;99.90;;;;;;5099445;28;20216;-77
2021/08/01 05:30:28;;;;;;;28.58;10.55;;;16.50;99.90;;;;;;5092799;28;20615;-80
2021/08/01 05:32:53;;;;;;;19.92;8.75;;;16.60;99.90;;;;;;5078181;28;20182;-78
2021/08/01 05:35:19;;;;;;;19.75;8.57;;;16.70;99.90;;;;;;5096500;28;20616;-77
2021/08/01 05:37:45;;;;;;;24.05;9.95;;;16.70;99.90;;;;;;5096040;28;20181;-78
2021/08/01 05:40:11;;;;;;;24.08;8.75;;;16.80;99.90;;;;;;5094558;28;20206;-81
2021/08/01 05:42:37;;;;;;;19.63;8.43;;;17.00;99.90;;;;;;5062243;28;20174;-78
2021/08/01 05:45:04;;;;;;;21.92;8.27;;;17.20;99.90;;;;;;5054973;28;20182;-78
2021/08/01 05:47:30;;;;;;;31.33;8.43;;;17.20;99.90;;;;;;5057886;28;20167;-78
2021/08/01 05:49:57;;;;;;;25.10;7.85;;;17.30;99.90;;;;;;5075543;28;20170;-78
2021/08/01 05:52:22;;;;;;;20.30;7.78;;;17.40;99.90;;;;;;5094892;28;20666;-78
2021/08/01 05:54:51;;;;;;;27.15;8.77;;;17.50;99.90;;;;;;5096026;28;20174;-78
2021/08/01 05:57:17;;;;;;;13.07;7.15;;;17.70;99.90;;;;;;5096161;28;20201;-78
2021/08/01 05:59:42;;;;;;;18.92;7.00;;;17.70;99.90;;;;;;5095921;28;20222;-78
2021/08/01 06:02:11;;;;;;;21.38;6.93;;;17.80;99.90;;;;;;5078083;28;20175;-78
2021/08/01 06:04:37;;;;;;;20.35;7.45;;;17.70;99.90;;;;;;5075739;28;20171;-77
2021/08/01 06:07:02;;;;;;;13.20;6.65;;;17.80;99.90;;;;;;5075944;28;20551;-78
2021/08/01 06:09:28;;;;;;;24.83;7.28;;;17.80;99.90;;;;;;5092156;28;20265;-78
2021/08/01 06:11:54;;;;;;;19.63;7.32;;;17.90;99.90;;;;;;5093465;28;20639;-77
2021/08/01 06:14:20;;;;;;;25.15;6.50;;;18.10;99.90;;;;;;5067106;28;20623;-77
2021/08/01 06:16:45;;;;;;;15.48;6.95;;;18.10;99.90;;;;;;5075342;28;20258;-77
2021/08/01 06:19:11;;;;;;;15.48;6.30;;;18.00;99.90;;;;;;5071434;28;20182;-78
2021/08/01 06:21:37;;;;;;;14.43;6.18;;;17.90;99.90;;;;;;5094125;28;20671;-80
2021/08/01 06:24:02;;;;;;;28.50;9.18;;;17.90;99.90;;;;;;5095211;28;20180;-78
2021/08/01 06:26:28;;;;;;;23.80;8.73;;;17.90;99.90;;;;;;5077189;28;20254;-78
2021/08/01 06:28:54;;;;;;;28.05;8.40;;;17.90;99.90;;;;;;5094609;28;20170;-78
2021/08/01 06:31:19;;;;;;;16.35;7.85;;;17.90;99.90;;;;;;5077449;28;20178;-77
2021/08/01 06:33:45;;;;;;;18.65;8.88;;;18.00;99.90;;;;;;5093362;28;20174;-77
2021/08/01 06:36:13;;;;;;;18.35;9.88;;;18.00;99.90;;;;;;5095267;28;20181;-76
2021/08/01 06:38:39;;;;;;;19.88;9.38;;;18.10;99.90;;;;;;5086227;28;20514;-76
2021/08/01 06:41:06;;;;;;;30.08;9.75;;;18.30;99.90;;;;;;5074437;28;20551;-77
2021/08/01 06:43:32;;;;;;;22.30;11.27;;;18.30;99.90;;;;;;5080294;28;20166;-77
2021/08/01 06:45:58;;;;;;;27.17;10.88;;;18.50;99.90;;;;;;5056588;28;20182;-77
2021/08/01 06:48:24;;;;;;;30.77;10.18;;;18.70;99.90;;;;;;5082288;28;20227;-77
2021/08/01 06:50:50;;;;;;;21.67;9.75;;;19.10;99.90;;;;;;5076808;28;20173;-78
2021/08/01 06:53:16;;;;;;;32.88;10.73;;;19.30;99.90;;;;;;5076843;28;20326;-77
2021/08/01 06:55:42;;;;;;;25.77;11.27;;;19.40;99.90;;;;;;5079971;28;20573;-76
2021/08/01 06:58:08;;;;;;;21.05;11.00;;;19.30;99.90;;;;;;5061380;28;20190;-77
2021/08/01 07:00:34;;;;;;;21.67;11.48;;;19.10;99.90;;;;;;5076813;28;20531;-77
2021/08/01 07:03:02;;;;;;;30.38;11.38;;;19.00;99.90;;;;;;5094741;28;20172;-77
2021/08/01 07:05:29;;;;;;;33.28;12.32;;;18.90;99.90;;;;;;5074550;28;20243;-76
2021/08/01 07:07:55;;;;;;;24.70;11.27;;;18.90;99.90;;;;;;5094659;28;20166;-76
2021/08/01 07:10:22;;;;;;;25.45;11.40;;;18.90;99.90;;;;;;5076379;28;20178;-77
2021/08/01 07:12:49;;;;;;;25.45;11.18;;;18.90;99.90;;;;;;5094379;28;20161;-76
2021/08/01 07:15:22;;;;;;;31.17;11.65;;;19.00;99.90;;;;;;5078999;28;20197;-76
2021/08/01 07:17:47;;;;;;;20.67;11.90;;;18.90;99.90;;;;;;5074292;28;20162;-75
2021/08/01 07:20:13;;;;;;;30.08;11.82;;;18.90;99.90;;;;;;5055956;28;20214;-76
2021/08/01 07:22:40;;;;;;;32.85;11.88;;;18.90;99.90;;;;;;5056070;28;20178;-76
2021/08/01 07:25:08;;;;;;;20.95;12.45;;;19.00;99.90;;;;;;5081532;28;20200;-75
2021/08/01 07:27:33;;;;;;;20.20;11.50;;;19.30;99.90;;;;;;5093872;28;20554;-76
2021/08/01 07:29:59;;;;;;;24.25;11.55;;;19.90;99.90;;;;;;5094251;28;20256;-75
2021/08/01 07:32:25;;;;;;;26.45;11.02;;;20.40;99.90;;;;;;5093794;28;20528;-75
2021/08/01 07:34:51;;;;;;;17.20;10.02;;;20.80;99.90;;;;;;5092512;28;20536;-81
2021/08/01 07:37:17;;;;;;;22.80;10.15;;;21.30;99.90;;;;;;5094169;28;20236;-76
2021/08/01 07:39:44;;;;;;;28.65;10.73;;;21.70;99.90;;;;;;5087368;28;20205;-76
2021/08/01 07:42:10;;;;;;;19.80;9.23;;;21.80;99.90;;;;;;5073666;28;20189;-75
2021/08/01 07:44:46;;;;;;;21.08;9.60;;;21.70;99.90;;;;;;5078848;28;20171;-76
2021/08/01 07:47:17;;;;;;;27.83;9.52;;;21.70;99.90;;;;;;5075943;28;20173;-76
2021/08/01 07:49:44;;;;;;;18.65;9.98;;;21.70;99.90;;;;;;5075834;28;20193;-76
2021/08/01 07:52:10;;;;;;;21.17;10.57;;;21.80;99.90;;;;;;5093362;28;20197;-77
2021/08/01 07:54:36;;;;;;;17.85;10.45;;;21.80;99.90;;;;;;5073626;28;20205;-77
2021/08/01 07:57:02;;;;;;;20.83;10.25;;;21.80;99.90;;;;;;5093812;28;20174;-76
2021/08/01 07:59:27;;;;;;;20.42;9.88;;;21.80;99.90;;;;;;5075674;28;20198;-76
2021/08/01 08:01:53;;;;;;;21.75;11.15;;;21.80;99.90;;;;;;5093763;28;20208;-76
2021/08/01 08:04:18;;;;;;;15.02;10.13;;;21.90;99.90;;;;;;5092082;28;20182;-76
2021/08/01 08:06:44;;;;;;;15.38;9.40;;;22.50;99.90;;;;;;5093386;28;20170;-76
2021/08/01 08:09:10;;;;;;;16.65;9.02;;;23.10;99.90;;;;;;5074683;28;20223;-76
2021/08/01 08:11:35;;;;;;;17.33;10.52;;;23.00;99.90;;;;;;5093643;28;20216;-75
2021/08/01 08:14:01;;;;;;;20.08;10.43;;;22.80;99.90;;;;;;5073611;28;20220;-76
2021/08/01 08:16:27;;;;;;;15.93;10.68;;;22.90;99.90;;;;;;5075606;28;20174;-76
2021/08/01 08:18:52;;;;;;;16.63;10.52;;;22.70;99.90;;;;;;5093475;28;20162;-76
2021/08/01 08:21:19;;;;;;;24.27;12.23;;;22.30;99.90;;;;;;5093096;28;20279;-75
2021/08/01 08:23:44;;;;;;;17.40;11.25;;;22.10;99.90;;;;;;5093397;28;20170;-77
2021/08/01 08:26:10;;;;;;;18.13;12.35;;;22.10;99.90;;;;;;5091832;28;20189;-77
2021/08/01 08:28:36;;;;;;;18.10;11.75;;;22.20;99.90;;;;;;5075871;28;20198;-77
2021/08/01 08:31:02;;;;;;;14.93;11.38;;;22.20;99.90;;;;;;5093536;28;20536;-76
2021/08/01 08:33:27;;;;;;;25.45;12.10;;;22.10;99.90;;;;;;5093466;28;20331;-76
2021/08/01 08:35:53;;;;;;;20.38;12.13;;;21.90;99.90;;;;;;5077496;28;20179;-82
2021/08/01 08:38:19;;;;;;;23.67;13.05;;;21.60;99.90;;;;;;5055216;28;20185;-78
2021/08/01 08:40:44;;;;;;;22.90;12.88;;;21.30;99.90;;;;;;5081355;28;20659;-76
2021/08/01 08:43:10;;;;;;;17.75;12.80;;;21.10;99.90;;;;;;5074137;28;20184;-76
2021/08/01 08:45:37;;;;;;;19.02;11.73;;;21.10;99.90;;;;;;5081688;28;20182;-77
2021/08/01 08:48:05;;;;;;;19.80;12.05;;;20.90;99.90;;;;;;5062307;28;20206;-77
2021/08/01 08:50:33;;;;;;;22.15;12.32;;;20.80;99.90;;;;;;5066373;28;20209;-77
2021/08/01 08:53:05;;;;;;;17.80;11.27;;;21.00;99.90;;;;;;5073045;28;20241;-77
2021/08/01 08:55:35;;;;;;;21.80;11.88;;;21.10;99.90;;;;;;5085333;28;20178;-76
2021/08/01 08:58:05;;;;;;;19.85;11.68;;;21.30;99.90;;;;;;5073027;28;20620;-75
2021/08/01 09:00:32;;;;;;;18.77;12.18;;;21.20;99.90;;;;;;5072939;28;20237;-77
2021/08/01 09:02:57;;;;;;;23.50;12.85;;;21.00;99.90;;;;;;5072883;28;20179;-76
2021/08/01 09:05:23;;;;;;;18.98;11.88;;;20.90;99.90;;;;;;5069629;28;20178;-76
2021/08/01 09:07:49;;;;;;;17.73;12.48;;;21.00;99.90;;;;;;5097010;28;20173;-75
2021/08/01 09:10:15;;;;;;;21.40;11.57;;;21.20;99.90;;;;;;5062101;28;20270;-76
2021/08/01 09:12:46;;;;;;;25.23;11.38;;;21.40;99.90;;;;;;5078838;28;20174;-75
2021/08/01 09:15:14;;;;;;;18.60;10.73;;;21.70;99.90;;;;;;5095285;28;20150;-78
2021/08/01 09:17:41;;;;;;;14.27;9.50;;;22.10;99.90;;;;;;5096205;28;20177;-77
2021/08/01 09:20:27;;;;;;;15.18;8.65;;;22.50;99.90;;;;;;5076389;28;20214;-82
2021/08/01 09:22:59;;;;;;;16.13;7.85;;;22.80;99.90;;;;;;5058380;28;20159;-76
2021/08/01 09:25:27;;;;;;;11.63;6.53;;;23.20;99.90;;;;;;5072667;28;20601;-77
2021/08/01 09:28:06;;;;;;;16.85;6.80;;;23.60;99.90;;;;;;5096594;28;20193;-76
2021/08/01 09:30:49;;;;;;;11.75;5.95;;;24.80;99.90;;;;;;5096450;28;20157;-77
2021/08/01 09:33:20;;;;;;;13.48;5.63;;;25.90;99.90;;;;;;5096557;28;20177;-87
2021/08/01 09:35:46;;;;;;;14.57;5.28;;;26.40;99.90;;;;;;5062026;28;20261;-80
2021/08/01 09:38:13;;;;;;;16.80;5.78;;;26.20;99.90;;;;;;5058433;28;20259;-79
2021/08/01 09:40:38;;;;;;;11.00;4.55;;;26.00;99.90;;;;;;5058087;28;20206;-78
2021/08/01 09:43:13;;;;;;;13.52;4.63;;;26.10;99.90;;;;;;5076073;28;20171;-79
2021/08/01 09:45:39;;;;;;;15.07;5.40;;;25.70;99.90;;;;;;5076955;28;20248;-79
2021/08/01 09:48:19;;;;;;;11.10;4.60;;;25.20;99.90;;;;;;5075985;28;20273;-79
2021/08/01 09:50:59;;;;;;;10.98;3.58;;;24.80;99.90;;;;;;5041415;28;20210;-79
2021/08/01 09:53:26;;;;;;;12.35;3.95;;;24.60;99.90;;;;;;5057932;28;20163;-80
2021/08/01 09:56:18;;;;;;;13.35;3.25;;;24.50;99.90;;;;;;5087636;28;20201;-80
2021/08/01 09:58:46;;;;;;;5.13;2.45;;;25.70;99.90;;;;;;5096079;28;20174;-85
2021/08/01 10:01:12;;;;;;;5.53;2.35;;;29.20;99.90;;;;;;5077659;28;20755;-81
2021/08/01 10:03:46;;;;;;;8.18;3.33;;;32.20;99.90;;;;;;5093623;28;20583;-78
2021/08/01 10:06:14;;;;;;;4.13;2.30;;;34.50;99.90;;;;;;5077779;28;20166;-77
2021/08/01 10:08:43;;;;;;;7.03;1.90;;;35.40;99.90;;;;;;5095835;28;20154;-77
2021/08/01 10:11:15;;;;;;;6.63;1.73;;;36.70;99.90;;;;;;5095693;28;20178;-79
2021/08/01 10:13:43;;;;;;;7.40;1.60;;;38.60;99.90;;;;;;5093900;28;20224;-78
2021/08/01 10:16:09;;;;;;;4.90;1.60;;;38.90;99.90;;;;;;5094682;28;20623;-81
2021/08/01 10:18:36;;;;;;;3.03;1.70;;;36.50;99.90;;;;;;5060683;28;20699;-79
2021/08/01 10:21:03;;;;;;;3.30;1.33;;;36.00;99.90;;;;;;5076986;28;20306;-80
2021/08/01 10:23:34;;;;;;;3.88;1.55;;;34.50;99.90;;;;;;5059291;28;20359;-80
2021/08/01 10:26:03;;;;;;;4.75;2.03;;;32.20;99.90;;;;;;5077865;28;20238;-80
2021/08/01 10:28:30;;;;;;;3.83;1.33;;;30.30;99.90;;;;;;5057087;28;20174;-79
2021/08/01 10:31:00;;;;;;;3.28;1.25;;;28.70;99.90;;;;;;5075174;28;20175;-81
2021/08/01 10:33:31;;;;;;;4.15;1.45;;;27.80;99.90;;;;;;5057391;28;20163;-82
2021/08/01 10:36:02;;;;;;;2.65;1.45;;;27.10;99.90;;;;;;5075154;28;20155;-82
2021/08/01 10:38:31;;;;;;;4.78;2.30;;;26.10;99.90;;;;;;5074942;28;20212;-82
2021/08/01 10:40:59;;;;;;;6.55;2.22;;;26.10;99.90;;;;;;5074723;28;20190;-81
2021/08/01 10:43:29;;;;;;;6.75;2.25;;;26.40;99.90;;;;;;5075558;28;20211;-81
2021/08/01 10:45:55;;;;;;;2.63;1.80;;;27.10;99.90;;;;;;5075399;28;20209;-82
2021/08/01 10:48:24;;;;;;;6.32;1.92;;;27.70;99.90;;;;;;5057071;28;20166;-82
2021/08/01 10:50:50;;;;;;;2.97;1.60;;;29.30;99.90;;;;;;5056660;28;20229;-82
2021/08/01 10:53:18;;;;;;;3.75;2.03;;;31.70;99.90;;;;;;5074669;28;20167;-83
2021/08/01 10:55:48;;;;;;;4.38;1.95;;;33.70;99.90;;;;;;5062616;28;20171;-82
2021/08/01 10:58:15;;;;;;;5.47;1.88;;;32.20;99.90;;;;;;5074848;28;20696;-81
2021/08/01 11:01:00;;;;;;;9.30;1.90;;;30.10;99.90;;;;;;5074462;28;20194;-80
2021/08/01 11:03:27;;;;;;;10.63;2.30;;;28.20;99.90;;;;;;5076786;28;20664;-83
2021/08/01 11:05:53;;;;;;;31.58;4.45;;;26.80;99.90;;;;;;5057962;28;20174;-80
2021/08/01 11:08:18;;;;;;;10.35;1.92;;;25.40;99.90;;;;;;5069971;28;20542;-79
2021/08/01 11:10:45;;;;;;;6.22;1.75;;;23.90;99.90;;;;;;5094653;28;20174;-79
2021/08/01 11:13:46;;;;;;;5.80;2.17;;;22.50;99.90;;;;;;5058441;28;20220;-81
2021/08/01 11:16:35;;;;;;;12.48;2.97;;;21.60;99.90;;;;;;5056492;28;20158;-81
2021/08/01 11:19:00;;;;;;;9.73;3.17;;;21.00;99.90;;;;;;5074131;28;20162;-82
2021/08/01 11:21:39;;;;;;;4.88;3.53;;;20.50;99.90;;;;;;5039222;28;20603;-81
2021/08/01 11:24:09;;;;;;;8.48;4.55;;;20.00;99.90;;;;;;5075184;28;20205;-80
2021/08/01 11:26:37;;;;;;;5.85;3.70;;;19.60;99.90;;;;;;5058606;28;20202;-83
2021/08/01 11:29:07;;;;;;;3.97;3.63;;;19.50;99.90;;;;;;5056434;28;20198;-81
2021/08/01 11:31:33;;;;;;;5.55;3.50;;;19.40;99.90;;;;;;5072983;28;20180;-81
2021/08/01 11:34:19;;;;;;;5.18;4.05;;;19.30;99.90;;;;;;5092909;28;20206;-80
2021/08/01 11:36:45;;;;;;;4.03;3.63;;;19.40;99.90;;;;;;5093706;28;20163;-80
2021/08/01 11:39:11;;;;;;;3.70;3.40;;;19.60;99.90;;;;;;5093826;28;20170;-80
2021/08/01 11:41:38;;;;;;;4.25;3.70;;;19.70;99.90;;;;;;5092577;28;20294;-80
2021/08/01 11:44:16;;;;;;;3.97;3.28;;;20.00;99.90;;;;;;5092367;28;20174;-79
2021/08/01 11:47:00;;;;;;;3.53;3.22;;;20.60;99.90;;;;;;5074732;28;20174;-79
2021/08/01 11:49:46;;;;;;;4.80;2.92;;;20.90;99.90;;;;;;5092871;28;20524;-80
2021/08/01 11:52:13;;;;;;;3.40;3.03;;;21.00;99.90;;;;;;5090815;28;20166;-79
2021/08/01 11:54:41;;;;;;;4.15;3.38;;;21.00;99.90;;;;;;5074070;28;20174;-79
2021/08/01 11:57:11;;;;;;;3.88;3.28;;;20.90;99.90;;;;;;5091700;28;20178;-78
2021/08/01 11:59:38;;;;;;;6.13;3.28;;;20.80;99.90;;;;;;5074180;28;20678;-78
2021/08/01 12:02:09;;;;;;;3.45;3.17;;;20.70;99.90;;;;;;5093196;28;20173;-79
2021/08/01 12:04:36;;;;;;;3.05;2.85;;;20.60;99.90;;;;;;5071002;28;20173;-79
2021/08/01 12:07:02;;;;;;;3.13;2.65;;;20.40;99.90;;;;;;5073553;28;20181;-79
2021/08/01 12:09:29;;;;;;;3.47;3.20;;;20.10;99.90;;;;;;5075625;28;20166;-80
2021/08/01 12:12:00;;;;;;;4.55;4.22;;;19.90;99.90;;;;;;5091257;28;20656;-83
2021/08/01 12:14:28;;;;;;;6.15;5.55;;;19.80;99.90;;;;;;5082479;28;20185;-81
2021/08/01 12:16:57;;;;;;;7.22;6.55;;;19.70;99.90;;;;;;5067106;28;20273;-80
2021/08/01 12:19:25;;;;;;;6.88;6.30;;;19.70;99.90;;;;;;5079850;28;20202;-80
2021/08/01 12:21:54;;;;;;;5.53;5.15;;;19.60;99.90;;;;;;5072613;28;20189;-81
2021/08/01 12:24:40;;;;;;;5.78;5.30;;;19.70;99.90;;;;;;5063197;28;20534;-82
2021/08/01 12:27:25;;;;;;;4.90;4.50;;;19.60;99.90;;;;;;5055865;28;20189;-80
2021/08/01 12:29:55;;;;;;;4.55;4.15;;;19.60;99.90;;;;;;5063778;28;20557;-80
2021/08/01 12:32:43;;;;;;;4.90;4.53;;;19.60;99.90;;;;;;5055850;28;20193;-80
2021/08/01 12:35:14;;;;;;;3.95;3.65;;;19.60;99.90;;;;;;5074437;28;20170;-79
2021/08/01 12:37:47;;;;;;;3.78;3.50;;;19.50;99.90;;;;;;5056479;28;20171;-79
2021/08/01 12:40:32;;;;;;;3.40;3.20;;;19.50;99.90;;;;;;5066221;28;20285;-79
2021/08/01 12:43:02;;;;;;;6.97;4.25;;;19.60;99.90;;;;;;5059251;28;20206;-79
2021/08/01 12:45:36;;;;;;;5.78;4.15;;;19.80;99.90;;;;;;5077799;28;20655;-78